Time;durP1;ratioP1;P1;durP2;ratioP2;P2;SDS_P1;SDS_P2;PMS_P1;PMS_P2;Temp;Humidity;BMP_temperature;BMP_pressure;BME280_temperature;BME280_humidity;BME280_pressure;Samples;Min_cycle;Max_cycle;Signal;HPM_P1;HPM_P2
2022/12/09 00:01:08;;;;;;;22.80;14.37;;;;;;;;;;4991670;28;20038;-65
2022/12/09 00:03:34;;;;;;;27.73;15.90;;;;;;;;;;4992437;28;20042;-65
2022/12/09 00:06:05;;;;;;;25.60;15.63;;;;;;;;;;4992925;28;20061;-65
2022/12/09 00:08:31;;;;;;;23.20;14.33;;;;;;;;;;5004104;28;20065;-65
2022/12/09 00:10:57;;;;;;;22.50;14.70;;;;;;;;;;5001967;28;20038;-65
2022/12/09 00:13:23;;;;;;;26.47;14.57;;;;;;;;;;5000195;28;20051;-65
2022/12/09 00:15:49;;;;;;;26.70;15.63;;;;;;;;;;4999058;28;20050;-65
2022/12/09 00:18:15;;;;;;;22.07;13.63;;;;;;;;;;5003110;28;20045;-64
2022/12/09 00:20:41;;;;;;;20.83;13.07;;;;;;;;;;4997175;28;20053;-65
2022/12/09 00:23:07;;;;;;;21.87;13.23;;;;;;;;;;5002199;28;20050;-65
2022/12/09 00:25:33;;;;;;;23.73;14.00;;;;;;;;;;4999544;28;20065;-65
2022/12/09 00:27:59;;;;;;;22.13;13.17;;;;;;;;;;5001431;28;20409;-65
2022/12/09 00:30:26;;;;;;;19.63;11.63;;;;;;;;;;5001709;28;20491;-65
2022/12/09 00:32:52;;;;;;;20.27;12.50;;;;;;;;;;4999268;28;20042;-65
2022/12/09 00:35:18;;;;;;;21.70;12.63;;;;;;;;;;4996038;28;20685;-65
2022/12/09 00:37:44;;;;;;;20.40;12.67;;;;;;;;;;5000801;28;20148;-65
2022/12/09 00:40:10;;;;;;;29.67;15.17;;;;;;;;;;5002252;28;20050;-65
2022/12/09 00:42:36;;;;;;;26.17;13.27;;;;;;;;;;4999252;28;20049;-65
2022/12/09 00:45:02;;;;;;;23.77;14.80;;;;;;;;;;5003705;28;20137;-65
2022/12/09 00:47:28;;;;;;;22.63;14.43;;;;;;;;;;5001210;28;20516;-65
2022/12/09 00:49:54;;;;;;;20.63;12.80;;;;;;;;;;4998631;28;20042;-65
2022/12/09 00:52:20;;;;;;;16.10;9.47;;;;;;;;;;5000788;28;20103;-65
2022/12/09 00:54:46;;;;;;;18.80;9.83;;;;;;;;;;5010841;28;20045;-65
2022/12/09 00:57:12;;;;;;;15.53;10.10;;;;;;;;;;5009711;28;20061;-65
2022/12/09 00:59:38;;;;;;;17.67;9.50;;;;;;;;;;5011186;28;20558;-65
2022/12/09 01:02:05;;;;;;;16.93;9.10;;;;;;;;;;5005253;28;20323;-65
2022/12/09 01:04:31;;;;;;;18.20;10.60;;;;;;;;;;5011268;28;20092;-65
2022/12/09 01:06:57;;;;;;;14.97;9.97;;;;;;;;;;5008587;28;20050;-65
2022/12/09 01:09:23;;;;;;;15.83;9.90;;;;;;;;;;4991790;28;20060;-66
2022/12/09 01:11:49;;;;;;;21.17;10.93;;;;;;;;;;4989885;28;20424;-65
2022/12/09 01:14:15;;;;;;;20.00;10.77;;;;;;;;;;4991572;28;20072;-65
2022/12/09 01:16:41;;;;;;;17.97;10.63;;;;;;;;;;4991495;28;20096;-65
2022/12/09 01:19:08;;;;;;;18.63;11.23;;;;;;;;;;4990998;28;20452;-65
2022/12/09 01:21:35;;;;;;;21.53;11.33;;;;;;;;;;4973795;28;20050;-65
2022/12/09 01:24:01;;;;;;;19.50;11.97;;;;;;;;;;4991118;28;20096;-65
2022/12/09 01:26:27;;;;;;;20.20;11.00;;;;;;;;;;4990931;28;20054;-65
2022/12/09 01:28:55;;;;;;;18.73;11.53;;;;;;;;;;4973611;28;20046;-66
2022/12/09 01:31:23;;;;;;;19.00;11.93;;;;;;;;;;4990916;28;20050;-66
2022/12/09 01:33:50;;;;;;;21.00;12.77;;;;;;;;;;4992128;28;20049;-65
2022/12/09 01:36:18;;;;;;;20.43;12.07;;;;;;;;;;5009182;28;20408;-65
2022/12/09 01:38:45;;;;;;;21.87;12.37;;;;;;;;;;5010061;28;20061;-65
2022/12/09 01:41:11;;;;;;;23.23;13.20;;;;;;;;;;5009158;28;20099;-65
2022/12/09 01:43:38;;;;;;;22.83;13.50;;;;;;;;;;5008416;28;20068;-65
2022/12/09 01:46:04;;;;;;;26.23;14.43;;;;;;;;;;4991899;28;20054;-65
2022/12/09 01:48:36;;;;;;;26.03;15.20;;;;;;;;;;5010218;28;20057;-65
2022/12/09 01:51:04;;;;;;;24.07;13.60;;;;;;;;;;5010102;28;20489;-65
2022/12/09 01:53:34;;;;;;;29.93;15.70;;;;;;;;;;5009677;28;20415;-65
2022/12/09 01:56:02;;;;;;;23.33;14.13;;;;;;;;;;5009746;28;20081;-65
2022/12/09 01:58:28;;;;;;;25.93;13.37;;;;;;;;;;5009857;28;20759;-65
2022/12/09 02:00:55;;;;;;;26.63;15.40;;;;;;;;;;5010637;28;20128;-65
2022/12/09 02:03:21;;;;;;;27.23;15.77;;;;;;;;;;4994035;28;20050;-65
2022/12/09 02:05:47;;;;;;;26.97;15.03;;;;;;;;;;4989057;28;20046;-65
2022/12/09 02:08:16;;;;;;;27.53;16.43;;;;;;;;;;4990601;28;20046;-65
2022/12/09 02:10:46;;;;;;;26.60;16.47;;;;;;;;;;4990414;28;20042;-66
2022/12/09 02:13:27;;;;;;;26.03;14.37;;;;;;;;;;4990709;28;20046;-65
2022/12/09 02:15:54;;;;;;;27.20;16.43;;;;;;;;;;4990412;28;20055;-65
2022/12/09 02:18:26;;;;;;;26.67;14.93;;;;;;;;;;4990508;28;20532;-65
2022/12/09 02:20:56;;;;;;;33.87;16.40;;;;;;;;;;4989916;28;20081;-65
2022/12/09 02:23:31;;;;;;;27.23;16.30;;;;;;;;;;4988659;28;20134;-65
2022/12/09 02:26:07;;;;;;;28.23;16.70;;;;;;;;;;4989599;28;20112;-65
2022/12/09 02:28:38;;;;;;;35.83;15.87;;;;;;;;;;4990000;28;20046;-65
2022/12/09 02:31:23;;;;;;;27.93;14.60;;;;;;;;;;4989408;28;20049;-64
2022/12/09 02:34:08;;;;;;;29.27;17.53;;;;;;;;;;4989790;28;20057;-65
2022/12/09 02:36:38;;;;;;;35.50;18.30;;;;;;;;;;5001432;28;20504;-65
2022/12/09 02:39:05;;;;;;;33.03;18.17;;;;;;;;;;5009350;28;20492;-65
2022/12/09 02:41:32;;;;;;;35.63;16.97;;;;;;;;;;5007825;28;20045;-65
2022/12/09 02:44:06;;;;;;;37.30;16.57;;;;;;;;;;5009003;28;20107;-65
2022/12/09 02:46:32;;;;;;;;;;;;;;;;;;5009705;28;20460;-65
2022/12/09 02:48:58;;;;;;;31.13;16.17;;;;;;;;;;5008768;28;19968;-65
2022/12/09 02:51:26;;;;;;;30.17;17.47;;;;;;;;;;5007925;28;20046;-65
2022/12/09 02:53:54;;;;;;;30.43;17.53;;;;;;;;;;5009070;28;20049;-65
2022/12/09 02:56:21;;;;;;;34.43;17.27;;;;;;;;;;5009093;28;20041;-65
2022/12/09 02:58:48;;;;;;;39.27;18.07;;;;;;;;;;5009000;28;20569;-65
2022/12/09 03:01:37;;;;;;;33.00;16.67;;;;;;;;;;5006279;28;20996;-65
2022/12/09 03:04:04;;;;;;;30.50;16.70;;;;;;;;;;4989443;28;20046;-65
2022/12/09 03:06:35;;;;;;;38.23;18.70;;;;;;;;;;4989676;28;20038;-65
2022/12/09 03:09:05;;;;;;;34.70;17.53;;;;;;;;;;4989510;28;20046;-65
2022/12/09 03:11:32;;;;;;;29.47;16.67;;;;;;;;;;4988992;28;20054;-65
2022/12/09 03:14:06;;;;;;;35.93;18.00;;;;;;;;;;4989422;28;20047;-64
2022/12/09 03:16:32;;;;;;;36.90;18.23;;;;;;;;;;4992432;28;20052;-65
2022/12/09 03:19:01;;;;;;;35.10;17.27;;;;;;;;;;4993339;28;20057;-65
2022/12/09 03:21:28;;;;;;;34.87;16.53;;;;;;;;;;4992205;28;20046;-65
2022/12/09 03:23:55;;;;;;;30.63;15.67;;;;;;;;;;4991585;28;20053;-65
2022/12/09 03:26:24;;;;;;;36.03;17.53;;;;;;;;;;5009837;28;20041;-65
2022/12/09 03:28:51;;;;;;;31.60;16.37;;;;;;;;;;5012656;28;20451;-65
2022/12/09 03:31:20;;;;;;;41.60;18.43;;;;;;;;;;5013172;28;20469;-65
2022/12/09 03:33:48;;;;;;;38.23;18.20;;;;;;;;;;5012794;28;20065;-65
2022/12/09 03:36:16;;;;;;;29.57;15.83;;;;;;;;;;5010989;28;20041;-65
2022/12/09 03:38:43;;;;;;;42.90;18.30;;;;;;;;;;5012855;28;20046;-65
2022/12/09 03:41:29;;;;;;;41.50;17.83;;;;;;;;;;5012504;28;20137;-65
2022/12/09 03:43:57;;;;;;;38.40;17.70;;;;;;;;;;5010899;28;20058;-65
2022/12/09 03:46:23;;;;;;;33.67;17.57;;;;;;;;;;5010723;28;20054;-65
2022/12/09 03:48:49;;;;;;;37.73;17.23;;;;;;;;;;5012200;28;20331;-65
2022/12/09 03:51:20;;;;;;;49.10;20.83;;;;;;;;;;5012361;28;20077;-65
2022/12/09 03:53:54;;;;;;;50.50;18.63;;;;;;;;;;5012398;28;20284;-65
2022/12/09 03:56:32;;;;;;;47.00;19.17;;;;;;;;;;5009796;28;20826;-65
2022/12/09 03:59:00;;;;;;;46.40;17.53;;;;;;;;;;5012247;28;20049;-65
2022/12/09 04:01:27;;;;;;;37.50;17.17;;;;;;;;;;5011366;28;20675;-65
2022/12/09 04:03:54;;;;;;;35.00;15.93;;;;;;;;;;4994620;28;20289;-65
2022/12/09 04:06:20;;;;;;;39.77;17.53;;;;;;;;;;5010682;28;20559;-64
2022/12/09 04:08:46;;;;;;;39.30;17.03;;;;;;;;;;5011685;28;20359;-65
2022/12/09 04:11:12;;;;;;;38.50;18.00;;;;;;;;;;5012174;28;20527;-64
2022/12/09 04:13:38;;;;;;;41.63;17.40;;;;;;;;;;5011864;28;20073;-65
2022/12/09 04:16:05;;;;;;;39.30;18.07;;;;;;;;;;5010605;28;20069;-66
2022/12/09 04:18:31;;;;;;;42.57;18.60;;;;;;;;;;5011774;28;20308;-64
2022/12/09 04:20:57;;;;;;;39.00;16.97;;;;;;;;;;5011857;28;20050;-65
2022/12/09 04:23:23;;;;;;;43.10;18.97;;;;;;;;;;5011476;28;20042;-65
2022/12/09 04:25:49;;;;;;;40.87;19.20;;;;;;;;;;5010085;28;20301;-65
2022/12/09 04:28:15;;;;;;;42.70;19.30;;;;;;;;;;5010710;28;20508;-65
2022/12/09 04:30:47;;;;;;;37.97;18.87;;;;;;;;;;4994083;28;20049;-65
2022/12/09 04:33:13;;;;;;;41.25;20.13;;;;;;;;;;5011982;28;20693;-65
2022/12/09 04:35:40;;;;;;;47.77;19.73;;;;;;;;;;5010503;28;20802;-65
2022/12/09 04:38:06;;;;;;;44.63;19.57;;;;;;;;;;5011320;28;20304;-65
2022/12/09 04:40:32;;;;;;;41.13;19.03;;;;;;;;;;5010044;28;20056;-65
2022/12/09 04:42:58;;;;;;;41.57;20.13;;;;;;;;;;5011446;28;20121;-65
2022/12/09 04:45:24;;;;;;;44.07;19.07;;;;;;;;;;5008687;28;20467;-65
2022/12/09 04:47:50;;;;;;;43.60;20.13;;;;;;;;;;5009887;28;20141;-65
2022/12/09 04:50:16;;;;;;;46.57;20.30;;;;;;;;;;4993842;28;20049;-65
2022/12/09 04:52:42;;;;;;;39.07;17.33;;;;;;;;;;5010820;28;20100;-65
2022/12/09 04:55:08;;;;;;;47.20;20.33;;;;;;;;;;5009988;28;20034;-64
2022/12/09 04:57:35;;;;;;;42.73;21.33;;;;;;;;;;5011389;28;20050;-65
2022/12/09 05:00:01;;;;;;;41.30;21.23;;;;;;;;;;5009328;28;20598;-65
2022/12/09 05:02:27;;;;;;;42.93;20.47;;;;;;;;;;5010981;28;20046;-65
2022/12/09 05:04:53;;;;;;;44.43;21.43;;;;;;;;;;5008258;28;20046;-65
2022/12/09 05:07:19;;;;;;;45.77;22.40;;;;;;;;;;5009786;28;20056;-65
2022/12/09 05:09:45;;;;;;;43.63;22.10;;;;;;;;;;5011170;28;20492;-65
2022/12/09 05:12:11;;;;;;;48.80;23.50;;;;;;;;;;5010975;28;20046;-65
2022/12/09 05:14:37;;;;;;;60.03;25.10;;;;;;;;;;5009899;28;20048;-64
2022/12/09 05:17:05;;;;;;;66.73;26.33;;;;;;;;;;4999302;28;20053;-65
2022/12/09 05:19:31;;;;;;;65.70;23.73;;;;;;;;;;5009803;28;20045;-64
2022/12/09 05:21:57;;;;;;;62.33;23.30;;;;;;;;;;5010517;28;20049;-65
2022/12/09 05:24:23;;;;;;;57.87;22.27;;;;;;;;;;5010539;28;20061;-65
2022/12/09 05:26:49;;;;;;;48.57;22.60;;;;;;;;;;5008269;28;20383;-64
2022/12/09 05:29:15;;;;;;;75.57;26.70;;;;;;;;;;5010831;28;20089;-65
2022/12/09 05:31:41;;;;;;;74.37;25.27;;;;;;;;;;5010379;28;20206;-65
2022/12/09 05:34:07;;;;;;;71.80;24.30;;;;;;;;;;5010464;28;20049;-65
2022/12/09 05:36:34;;;;;;;67.20;24.83;;;;;;;;;;5009229;28;20304;-64
2022/12/09 05:39:00;;;;;;;75.53;26.33;;;;;;;;;;5009005;28;20151;-65
2022/12/09 05:41:26;;;;;;;52.90;24.33;;;;;;;;;;5010442;28;20420;-65
2022/12/09 05:43:52;;;;;;;60.60;26.57;;;;;;;;;;5009777;28;20293;-65
2022/12/09 05:46:18;;;;;;;54.70;24.43;;;;;;;;;;5008586;28;20331;-65
2022/12/09 05:48:44;;;;;;;62.63;25.90;;;;;;;;;;5009806;28;20786;-65
2022/12/09 05:51:27;;;;;;;62.53;25.73;;;;;;;;;;5008930;28;20637;-65
2022/12/09 05:53:53;;;;;;;76.43;27.97;;;;;;;;;;5008215;28;20046;-65
2022/12/09 05:56:20;;;;;;;69.30;27.43;;;;;;;;;;5008669;28;20296;-65
2022/12/09 05:58:46;;;;;;;71.73;27.37;;;;;;;;;;5009042;28;20316;-65
2022/12/09 06:01:12;;;;;;;63.33;26.30;;;;;;;;;;5008243;28;20655;-64
2022/12/09 06:03:39;;;;;;;62.87;26.67;;;;;;;;;;5007177;28;20327;-65
2022/12/09 06:06:09;;;;;;;72.37;27.33;;;;;;;;;;5007100;28;20092;-65
2022/12/09 06:08:35;;;;;;;71.30;28.93;;;;;;;;;;5007567;28;20281;-65
2022/12/09 06:11:01;;;;;;;68.03;28.37;;;;;;;;;;5000724;28;20649;-65
2022/12/09 06:13:27;;;;;;;79.37;31.30;;;;;;;;;;4987381;28;20314;-65
2022/12/09 06:15:53;;;;;;;67.73;29.13;;;;;;;;;;4989748;28;20289;-64
2022/12/09 06:18:20;;;;;;;77.33;28.27;;;;;;;;;;4989769;28;20803;-65
2022/12/09 06:20:46;;;;;;;72.93;30.27;;;;;;;;;;4989683;28;20312;-65
2022/12/09 06:23:12;;;;;;;75.30;29.80;;;;;;;;;;4989901;28;20638;-64
2022/12/09 06:25:42;;;;;;;94.03;34.97;;;;;;;;;;4990081;28;20309;-64
2022/12/09 06:28:08;;;;;;;89.13;32.53;;;;;;;;;;4989622;28;20318;-64
2022/12/09 06:30:35;;;;;;;78.43;31.73;;;;;;;;;;4995715;28;20297;-64
2022/12/09 06:33:01;;;;;;;98.47;32.33;;;;;;;;;;5008068;28;20300;-65
2022/12/09 06:35:27;;;;;;;99.33;32.97;;;;;;;;;;5009573;28;20289;-64
2022/12/09 06:37:53;;;;;;;78.40;30.70;;;;;;;;;;5007251;28;20352;-64
2022/12/09 06:40:21;;;;;;;116.83;37.13;;;;;;;;;;5004812;28;20293;-64
2022/12/09 06:42:49;;;;;;;127.90;38.83;;;;;;;;;;4992400;28;20297;-63
2022/12/09 06:45:15;;;;;;;130.17;36.63;;;;;;;;;;4989227;28;20344;-64
2022/12/09 06:47:41;;;;;;;122.73;35.63;;;;;;;;;;4989573;28;20302;-63
2022/12/09 06:50:08;;;;;;;117.23;33.93;;;;;;;;;;4989821;28;20294;-63
2022/12/09 06:52:34;;;;;;;89.00;32.13;;;;;;;;;;4988212;28;20137;-63
2022/12/09 06:55:00;;;;;;;104.90;34.33;;;;;;;;;;4989365;28;20419;-63
2022/12/09 06:57:26;;;;;;;96.70;32.77;;;;;;;;;;4989473;28;20357;-63
2022/12/09 06:59:52;;;;;;;91.63;32.10;;;;;;;;;;4989064;28;20792;-63
2022/12/09 07:02:18;;;;;;;87.93;30.97;;;;;;;;;;4989437;28;20144;-62
2022/12/09 07:04:44;;;;;;;96.30;31.67;;;;;;;;;;4989436;28;20313;-62
2022/12/09 07:07:11;;;;;;;80.47;28.90;;;;;;;;;;4989501;28;20047;-63
2022/12/09 07:09:38;;;;;;;86.47;30.83;;;;;;;;;;4988959;28;20705;-63
2022/12/09 07:12:04;;;;;;;88.77;31.33;;;;;;;;;;4989211;28;20368;-62
2022/12/09 07:14:30;;;;;;;88.87;30.50;;;;;;;;;;4989238;28;20289;-62
2022/12/09 07:16:56;;;;;;;92.07;32.33;;;;;;;;;;4989355;28;20300;-62
2022/12/09 07:19:23;;;;;;;81.20;29.63;;;;;;;;;;4988972;28;20796;-62
2022/12/09 07:21:49;;;;;;;80.53;28.33;;;;;;;;;;4988685;28;20300;-62
2022/12/09 07:24:17;;;;;;;90.30;29.27;;;;;;;;;;4988695;28;20286;-62
2022/12/09 07:26:43;;;;;;;92.90;30.30;;;;;;;;;;4988882;28;20281;-62
2022/12/09 07:29:09;;;;;;;72.20;25.87;;;;;;;;;;4989046;28;20286;-62
2022/12/09 07:31:35;;;;;;;72.70;25.30;;;;;;;;;;4989067;28;20296;-62
2022/12/09 07:34:02;;;;;;;110.70;30.83;;;;;;;;;;4988995;28;20285;-62
2022/12/09 07:36:29;;;;;;;81.43;28.93;;;;;;;;;;4989184;28;20851;-62
2022/12/09 07:39:00;;;;;;;71.67;26.13;;;;;;;;;;4996919;28;20312;-61
2022/12/09 07:41:26;;;;;;;92.13;30.33;;;;;;;;;;5008309;28;20683;-62
2022/12/09 07:43:52;;;;;;;82.13;28.40;;;;;;;;;;4992055;28;20288;-61
2022/12/09 07:46:19;;;;;;;95.93;31.20;;;;;;;;;;4988668;28;20292;-62
2022/12/09 07:48:45;;;;;;;90.03;30.23;;;;;;;;;;4986731;28;20309;-62
2022/12/09 07:51:11;;;;;;;81.50;29.07;;;;;;;;;;4988539;28;20364;-62
2022/12/09 07:53:38;;;;;;;76.77;27.63;;;;;;;;;;4988228;28;20292;-62
2022/12/09 07:56:05;;;;;;;91.83;30.57;;;;;;;;;;5003298;28;20632;-63
2022/12/09 07:58:31;;;;;;;83.93;28.43;;;;;;;;;;5005646;28;20827;-62
2022/12/09 08:00:57;;;;;;;77.87;26.57;;;;;;;;;;5004776;28;20339;-62
2022/12/09 08:03:23;;;;;;;83.43;28.30;;;;;;;;;;5010862;28;20528;-62
2022/12/09 08:05:50;;;;;;;94.77;28.70;;;;;;;;;;5010564;28;20124;-62
2022/12/09 08:08:16;;;;;;;86.37;29.40;;;;;;;;;;5005603;28;20634;-62
2022/12/09 08:10:42;;;;;;;78.10;27.07;;;;;;;;;;5002615;28;20290;-62
2022/12/09 08:13:09;;;;;;;97.53;29.13;;;;;;;;;;5009238;28;20281;-61
2022/12/09 08:15:35;;;;;;;103.97;30.43;;;;;;;;;;5007595;28;20301;-63
2022/12/09 08:18:01;;;;;;;104.20;29.47;;;;;;;;;;4996121;28;20340;-62
2022/12/09 08:20:27;;;;;;;133.13;36.87;;;;;;;;;;5010699;28;20295;-62
2022/12/09 08:22:53;;;;;;;116.93;33.57;;;;;;;;;;5010788;28;20292;-62
2022/12/09 08:25:19;;;;;;;104.70;31.13;;;;;;;;;;5010464;28;20651;-62
2022/12/09 08:27:45;;;;;;;152.90;42.97;;;;;;;;;;5010573;28;20285;-62
2022/12/09 08:30:12;;;;;;;165.27;43.73;;;;;;;;;;5009820;28;20045;-62
2022/12/09 08:32:38;;;;;;;192.17;47.47;;;;;;;;;;5011320;28;20295;-63
2022/12/09 08:35:04;;;;;;;191.87;48.73;;;;;;;;;;5010215;28;20364;-63
2022/12/09 08:37:30;;;;;;;216.90;50.80;;;;;;;;;;5010105;28;20489;-63
2022/12/09 08:39:56;;;;;;;333.87;63.10;;;;;;;;;;5010085;28;20636;-62
2022/12/09 08:42:22;;;;;;;347.57;66.80;;;;;;;;;;5009116;28;20289;-62
2022/12/09 08:44:49;;;;;;;340.13;62.43;;;;;;;;;;5004426;28;20069;-63
2022/12/09 08:47:15;;;;;;;592.93;94.70;;;;;;;;;;4999394;28;20105;-63
2022/12/09 08:49:41;;;;;;;637.87;95.30;;;;;;;;;;5001617;28;20307;-62
2022/12/09 08:52:07;;;;;;;858.23;116.57;;;;;;;;;;5009533;28;20285;-62
2022/12/09 08:54:33;;;;;;;824.40;114.90;;;;;;;;;;5008930;28;20068;-63
2022/12/09 08:56:59;;;;;;;779.67;111.87;;;;;;;;;;5009494;28;20141;-62
2022/12/09 08:59:25;;;;;;;788.53;110.13;;;;;;;;;;5009761;28;20137;-63
2022/12/09 09:01:52;;;;;;;723.40;106.20;;;;;;;;;;5000841;28;20372;-63
2022/12/09 09:04:19;;;;;;;725.67;101.70;;;;;;;;;;4989617;28;20105;-63
2022/12/09 09:06:48;;;;;;;714.30;105.40;;;;;;;;;;4989101;28;20300;-63
2022/12/09 09:09:14;;;;;;;726.90;103.50;;;;;;;;;;4989972;28;20285;-63
2022/12/09 09:11:41;;;;;;;753.73;107.47;;;;;;;;;;4990472;28;20286;-63
2022/12/09 09:14:08;;;;;;;696.53;103.93;;;;;;;;;;4990116;28;20300;-63
2022/12/09 09:16:34;;;;;;;843.73;114.53;;;;;;;;;;4990804;28;20317;-62
2022/12/09 09:19:02;;;;;;;868.77;117.77;;;;;;;;;;4990732;28;20660;-63
2022/12/09 09:21:28;;;;;;;860.23;120.80;;;;;;;;;;4989538;28;20285;-63
2022/12/09 09:23:54;;;;;;;743.73;105.20;;;;;;;;;;4989718;28;20286;-63
2022/12/09 09:26:22;;;;;;;670.30;91.20;;;;;;;;;;4990256;28;20798;-64
2022/12/09 09:28:48;;;;;;;895.83;120.83;;;;;;;;;;4990659;28;20278;-63
2022/12/09 09:31:17;;;;;;;979.57;127.53;;;;;;;;;;4990351;28;20285;-63
2022/12/09 09:33:43;;;;;;;714.17;99.40;;;;;;;;;;4989954;28;20791;-63
2022/12/09 09:36:12;;;;;;;589.30;88.03;;;;;;;;;;4990653;28;20286;-64
2022/12/09 09:38:38;;;;;;;667.50;96.50;;;;;;;;;;4988566;28;20400;-63
2022/12/09 09:41:14;;;;;;;618.43;89.93;;;;;;;;;;4990345;28;20972;-64
2022/12/09 09:43:41;;;;;;;568.93;87.70;;;;;;;;;;4989824;28;20296;-64
2022/12/09 09:46:09;;;;;;;713.83;105.87;;;;;;;;;;4988623;28;20348;-64
2022/12/09 09:48:36;;;;;;;609.17;96.80;;;;;;;;;;4990135;28;20497;-64
2022/12/09 09:51:08;;;;;;;597.17;90.40;;;;;;;;;;4990010;28;20322;-64
2022/12/09 09:53:35;;;;;;;689.07;105.60;;;;;;;;;;4990355;28;20304;-64
2022/12/09 09:56:25;;;;;;;727.40;106.67;;;;;;;;;;4989499;28;20285;-65
2022/12/09 09:59:30;;;;;;;645.53;96.83;;;;;;;;;;4989948;28;20317;-65
2022/12/09 10:01:56;;;;;;;;;;;;;;;;;;4978220;28;20297;-65
2022/12/09 10:04:45;;;;;;;777.93;106.03;;;;;;;;;;4971250;28;20451;-65
2022/12/09 10:07:17;;;;;;;668.93;96.97;;;;;;;;;;4990200;28;20132;-65
2022/12/09 10:09:43;;;;;;;687.07;101.67;;;;;;;;;;5009283;28;20288;-65
2022/12/09 10:12:18;;;;;;;502.37;82.70;;;;;;;;;;5008354;28;20297;-65
2022/12/09 10:14:50;;;;;;;647.57;94.27;;;;;;;;;;5008065;28;20308;-65
2022/12/09 10:17:33;;;;;;;453.27;72.63;;;;;;;;;;5009260;28;20053;-65
2022/12/09 10:20:06;;;;;;;556.23;85.63;;;;;;;;;;5009163;28;20297;-65
2022/12/09 10:22:40;;;;;;;559.35;87.57;;;;;;;;;;5008938;28;20056;-65
2022/12/09 10:25:15;;;;;;;564.23;86.20;;;;;;;;;;5008084;28;20092;-66
2022/12/09 10:27:53;;;;;;;595.23;91.57;;;;;;;;;;5007689;28;20680;-66
2022/12/09 10:30:24;;;;;;;541.33;83.47;;;;;;;;;;4991553;28;20303;-66
2022/12/09 10:32:50;;;;;;;335.27;66.90;;;;;;;;;;5008917;28;20099;-66
2022/12/09 10:35:19;;;;;;;211.70;51.20;;;;;;;;;;5007870;28;20300;-66
2022/12/09 10:37:45;;;;;;;237.47;53.33;;;;;;;;;;5007059;28;20508;-66
2022/12/09 10:40:11;;;;;;;242.20;53.73;;;;;;;;;;5009004;28;20285;-65
2022/12/09 10:45:56;;;;;;;294.53;55.37;;;;;;;;;;5008893;28;20289;-66
2022/12/09 10:48:28;;;;;;;257.50;53.63;;;;;;;;;;5008885;28;20295;-66
2022/12/09 10:50:56;;;;;;;270.70;54.83;;;;;;;;;;5007715;28;20049;-66
2022/12/09 10:53:22;;;;;;;221.60;49.17;;;;;;;;;;5008827;28;20284;-65
2022/12/09 10:55:52;;;;;;;159.30;44.70;;;;;;;;;;5008701;28;20331;-66
2022/12/09 10:58:23;;;;;;;166.20;45.93;;;;;;;;;;5007375;28;20065;-66
2022/12/09 11:00:58;;;;;;;137.03;40.63;;;;;;;;;;5006075;28;20447;-66
2022/12/09 11:03:26;;;;;;;109.87;39.20;;;;;;;;;;4989119;28;20050;-66
2022/12/09 11:05:57;;;;;;;126.80;41.63;;;;;;;;;;4989005;28;20050;-66
2022/12/09 11:08:23;;;;;;;98.87;33.83;;;;;;;;;;4988851;28;20437;-66
2022/12/09 11:10:49;;;;;;;76.40;32.00;;;;;;;;;;4971869;28;20133;-66
2022/12/09 11:13:17;;;;;;;67.17;31.53;;;;;;;;;;4988554;28;20074;-66
2022/12/09 11:15:45;;;;;;;54.97;27.60;;;;;;;;;;4988740;28;20092;-65
2022/12/09 11:18:25;;;;;;;45.90;25.30;;;;;;;;;;4989213;28;20046;-66
2022/12/09 11:20:56;;;;;;;49.43;25.03;;;;;;;;;;4971435;28;20047;-65
2022/12/09 11:23:22;;;;;;;41.43;23.83;;;;;;;;;;4987638;28;20053;-66
2022/12/09 11:26:05;;;;;;;35.13;21.47;;;;;;;;;;4987935;28;20050;-65
2022/12/09 11:28:32;;;;;;;32.65;20.33;;;;;;;;;;4988980;28;20100;-65
2022/12/09 11:31:18;;;;;;;34.03;20.60;;;;;;;;;;4990223;28;20054;-65
2022/12/09 11:33:50;;;;;;;33.57;19.23;;;;;;;;;;4988545;28;20101;-66
2022/12/09 11:36:23;;;;;;;34.80;21.30;;;;;;;;;;4990381;28;20050;-66
2022/12/09 11:38:51;;;;;;;34.77;22.90;;;;;;;;;;5005255;28;20164;-66
2022/12/09 11:44:25;;;;;;;30.57;18.97;;;;;;;;;;5004148;28;20049;-65
2022/12/09 11:47:11;;;;;;;31.47;20.97;;;;;;;;;;5003108;28;20128;-65
2022/12/09 11:49:48;;;;;;;33.70;20.10;;;;;;;;;;5008944;28;20107;-66
2022/12/09 11:52:17;;;;;;;35.47;22.67;;;;;;;;;;5012005;28;20096;-66
2022/12/09 11:55:02;;;;;;;33.67;20.97;;;;;;;;;;5011620;28;20416;-66
2022/12/09 11:57:47;;;;;;;37.03;21.73;;;;;;;;;;5004340;28;20050;-66
2022/12/09 12:00:17;;;;;;;40.20;23.63;;;;;;;;;;4996295;28;20129;-66
2022/12/09 12:02:46;;;;;;;39.50;21.53;;;;;;;;;;4993106;28;20081;-65
2022/12/09 12:05:12;;;;;;;37.30;22.23;;;;;;;;;;5004581;28;20512;-65
2022/12/09 12:07:40;;;;;;;40.80;23.40;;;;;;;;;;4994765;28;20058;-65
2022/12/09 12:10:12;;;;;;;38.90;22.33;;;;;;;;;;4997524;28;20046;-65
2022/12/09 12:12:42;;;;;;;36.70;21.40;;;;;;;;;;5002686;28;20105;-65
2022/12/09 12:15:21;;;;;;;39.47;22.50;;;;;;;;;;4995739;28;20317;-65
2022/12/09 12:17:49;;;;;;;36.63;22.13;;;;;;;;;;4999930;28;20045;-65
2022/12/09 12:20:15;;;;;;;36.20;20.83;;;;;;;;;;4980810;28;20125;-65
2022/12/09 12:23:03;;;;;;;35.13;19.77;;;;;;;;;;5003562;28;20053;-65
2022/12/09 12:25:29;;;;;;;33.70;18.90;;;;;;;;;;4998135;28;20450;-65
2022/12/09 12:28:02;;;;;;;34.97;19.90;;;;;;;;;;4982029;28;20069;-65
2022/12/09 12:30:34;;;;;;;41.80;18.08;;;;;;;;;;4993483;28;20046;-65
2022/12/09 12:33:20;;;;;;;32.30;17.97;;;;;;;;;;4995083;28;20072;-65
2022/12/09 12:35:58;;;;;;;31.07;18.27;;;;;;;;;;4999745;28;20496;-65
2022/12/09 12:38:43;;;;;;;29.63;18.70;;;;;;;;;;4981436;28;20229;-65
2022/12/09 12:41:42;;;;;;;27.37;16.47;;;;;;;;;;4996591;28;20050;-65
2022/12/09 12:47:20;;;;;;;30.43;18.53;;;;;;;;;;4999954;28;21567;-65
2022/12/09 12:50:02;;;;;;;34.93;17.87;;;;;;;;;;4997308;28;20046;-66
2022/12/09 12:52:31;;;;;;;31.97;16.87;;;;;;;;;;4999829;28;20049;-66
2022/12/09 12:54:57;;;;;;;34.13;19.83;;;;;;;;;;5002227;28;20049;-65
2022/12/09 12:57:31;;;;;;;33.17;19.00;;;;;;;;;;4997895;28;20065;-65
2022/12/09 13:00:01;;;;;;;30.57;17.13;;;;;;;;;;4997320;28;20050;-65
2022/12/09 13:02:43;;;;;;;29.97;17.27;;;;;;;;;;4997038;28;20048;-65
2022/12/09 13:05:15;;;;;;;30.77;17.43;;;;;;;;;;5002385;28;20097;-65
2022/12/09 13:07:48;;;;;;;28.67;17.70;;;;;;;;;;4996782;28;20038;-65
2022/12/09 13:10:20;;;;;;;29.20;16.97;;;;;;;;;;4998119;28;20320;-65
2022/12/09 13:12:55;;;;;;;29.33;16.33;;;;;;;;;;4996936;28;20297;-65
2022/12/09 13:15:31;;;;;;;29.77;16.90;;;;;;;;;;4994826;28;20084;-65
2022/12/09 13:18:00;;;;;;;28.23;15.17;;;;;;;;;;4993127;28;20192;-65
2022/12/09 13:20:46;;;;;;;27.80;15.33;;;;;;;;;;4997190;28;20389;-66
2022/12/09 13:23:28;;;;;;;29.03;15.67;;;;;;;;;;4998675;28;20468;-65
2022/12/09 13:25:55;;;;;;;26.93;15.60;;;;;;;;;;4998780;28;20060;-65
2022/12/09 13:28:26;;;;;;;27.17;14.77;;;;;;;;;;4994626;28;20038;-65
2022/12/09 13:30:59;;;;;;;29.47;16.90;;;;;;;;;;4997394;28;20053;-65
2022/12/09 13:33:31;;;;;;;26.17;15.60;;;;;;;;;;4999455;28;20046;-65
2022/12/09 13:36:05;;;;;;;26.07;16.13;;;;;;;;;;4997119;28;20044;-65
2022/12/09 13:38:35;;;;;;;26.80;15.57;;;;;;;;;;4989984;28;20452;-65
2022/12/09 13:41:21;;;;;;;28.67;15.73;;;;;;;;;;4989600;28;20060;-65
2022/12/09 13:43:47;;;;;;;28.53;16.10;;;;;;;;;;4988452;28;20054;-65
2022/12/09 13:46:20;;;;;;;29.70;16.80;;;;;;;;;;4988949;28;20153;-65
2022/12/09 13:48:47;;;;;;;22.80;13.75;;;;;;;;;;4989529;28;20054;-64
2022/12/09 13:51:13;;;;;;;27.17;14.93;;;;;;;;;;4989499;28;20061;-65
2022/12/09 13:53:41;;;;;;;26.30;14.40;;;;;;;;;;4989675;28;20038;-65
2022/12/09 13:56:16;;;;;;;24.17;13.73;;;;;;;;;;4989789;28;20132;-65
2022/12/09 13:59:01;;;;;;;32.53;18.63;;;;;;;;;;4989113;28;20058;-65
2022/12/09 14:01:46;;;;;;;27.87;15.80;;;;;;;;;;4989356;28;20050;-65
2022/12/09 14:04:22;;;;;;;25.27;14.57;;;;;;;;;;4989439;28;20050;-65
2022/12/09 14:07:08;;;;;;;25.33;14.30;;;;;;;;;;4989268;28;20565;-65
2022/12/09 14:09:37;;;;;;;25.80;15.83;;;;;;;;;;4989365;28;20054;-65
2022/12/09 14:12:05;;;;;;;28.83;15.43;;;;;;;;;;4971725;28;20050;-65
2022/12/09 14:14:34;;;;;;;26.07;15.90;;;;;;;;;;4989358;28;20050;-65
2022/12/09 14:17:16;;;;;;;26.90;14.80;;;;;;;;;;4988392;28;20849;-65
2022/12/09 14:19:42;;;;;;;26.37;15.23;;;;;;;;;;4988828;28;20051;-65
2022/12/09 14:22:18;;;;;;;25.87;15.03;;;;;;;;;;4989335;28;20097;-65
2022/12/09 14:24:54;;;;;;;28.37;15.50;;;;;;;;;;4989292;28;20050;-65
2022/12/09 14:27:23;;;;;;;27.20;16.43;;;;;;;;;;4989613;28;20120;-65
2022/12/09 14:29:52;;;;;;;24.70;14.63;;;;;;;;;;4989735;28;20074;-65
2022/12/09 14:32:20;;;;;;;27.70;17.47;;;;;;;;;;4989090;28;20050;-65
2022/12/09 14:34:48;;;;;;;26.50;16.90;;;;;;;;;;4989247;28;20479;-65